createdAt,value
2022-09-01T00:00:18.435Z,16.55
2022-09-01T00:03:03.195Z,16.48
2022-09-01T00:05:48.173Z,16.46
2022-09-01T00:08:32.846Z,16.40
2022-09-01T00:11:17.847Z,16.33
2022-09-01T00:14:02.597Z,16.17
2022-09-01T00:16:47.490Z,16.07
2022-09-01T00:19:36.705Z,16.02
2022-09-01T00:22:21.381Z,16.03
2022-09-01T00:25:06.295Z,16.13
2022-09-01T00:27:50.967Z,16.14
2022-09-01T00:30:35.800Z,16.18
2022-09-01T00:33:20.484Z,16.14
2022-09-01T00:36:05.437Z,16.13
2022-09-01T00:38:50.179Z,16.11
2022-09-01T00:41:35.951Z,16.11
2022-09-01T00:44:20.977Z,16.06
2022-09-01T00:47:05.851Z,15.98
2022-09-01T00:49:50.682Z,15.92
2022-09-01T00:52:35.396Z,15.89
2022-09-01T00:55:20.257Z,15.81
2022-09-01T00:58:05.117Z,15.89
2022-09-01T01:00:49.854Z,15.89
2022-09-01T01:03:34.589Z,15.89
2022-09-01T01:06:19.457Z,15.78
2022-09-01T01:09:04.274Z,15.71
2022-09-01T01:11:49.009Z,15.74
2022-09-01T01:14:34.012Z,15.77
2022-09-01T01:17:18.879Z,15.72
2022-09-01T01:20:03.658Z,15.81
2022-09-01T01:22:48.425Z,15.78
2022-09-01T01:25:33.351Z,15.74
2022-09-01T01:28:18.232Z,15.67
2022-09-01T01:31:03.291Z,15.67
2022-09-01T01:33:48.410Z,15.64
2022-09-01T01:36:33.222Z,15.63
2022-09-01T01:39:18.075Z,15.57
2022-09-01T01:42:02.779Z,15.54
2022-09-01T01:44:47.684Z,15.48
2022-09-01T01:47:32.443Z,15.47
2022-09-01T01:50:17.290Z,15.46
2022-09-01T01:53:02.012Z,15.38
2022-09-01T01:55:46.957Z,15.39
2022-09-01T01:58:31.792Z,15.38
2022-09-01T02:01:16.711Z,15.40
2022-09-01T02:04:02.121Z,15.43
2022-09-01T02:06:46.882Z,15.43
2022-09-01T02:09:31.707Z,15.41
2022-09-01T02:12:16.571Z,15.40
2022-09-01T02:15:01.369Z,15.42
2022-09-01T02:17:46.263Z,15.34
2022-09-01T02:20:31.090Z,15.26
2022-09-01T02:23:15.862Z,15.24
2022-09-01T02:26:15.605Z,15.21
2022-09-01T02:29:01.050Z,15.17
2022-09-01T02:31:45.863Z,15.09
2022-09-01T02:34:30.744Z,15.07
2022-09-01T02:37:15.577Z,15.09
2022-09-01T02:40:00.558Z,15.04
2022-09-01T02:42:45.332Z,15.09
2022-09-01T02:45:30.269Z,15.16
2022-09-01T02:48:15.489Z,15.23
2022-09-01T02:51:03.899Z,15.15
2022-09-01T02:53:48.927Z,15.11
2022-09-01T02:56:33.747Z,15.10
2022-09-01T02:59:18.662Z,15.11
2022-09-01T03:02:03.331Z,15.11
2022-09-01T03:04:48.138Z,15.08
2022-09-01T03:07:33.477Z,15.06
2022-09-01T03:10:18.190Z,15.07
2022-09-01T03:13:03.062Z,15.09
2022-09-01T03:15:47.964Z,15.05
2022-09-01T03:18:32.851Z,14.99
2022-09-01T03:21:17.569Z,14.93
2022-09-01T03:24:02.427Z,14.92
2022-09-01T03:26:49.762Z,14.88
2022-09-01T03:29:36.823Z,14.84
2022-09-01T03:32:21.879Z,14.82
2022-09-01T03:35:06.799Z,14.81
2022-09-01T03:37:51.608Z,14.73
2022-09-01T03:40:36.437Z,14.71
2022-09-01T03:43:21.737Z,14.69
2022-09-01T03:46:06.531Z,14.73
2022-09-01T03:48:51.827Z,14.72
2022-09-01T03:51:36.967Z,14.70
2022-09-01T03:54:21.773Z,14.71
2022-09-01T03:57:06.702Z,14.66
2022-09-01T03:59:51.395Z,14.64
2022-09-01T04:02:40.444Z,14.69
2022-09-01T04:05:25.693Z,14.69
2022-09-01T04:08:10.527Z,14.71
2022-09-01T04:10:55.437Z,14.73
2022-09-01T04:13:40.231Z,14.75
2022-09-01T04:16:25.105Z,14.76
2022-09-01T04:19:10.377Z,14.73
2022-09-01T04:21:55.120Z,14.69
2022-09-01T04:24:43.253Z,14.64
2022-09-01T04:27:30.178Z,14.63
2022-09-01T04:30:15.143Z,14.66
2022-09-01T04:32:59.864Z,14.73
2022-09-01T04:35:44.764Z,14.74
2022-09-01T04:38:29.740Z,14.74
2022-09-01T04:41:14.606Z,14.71
2022-09-01T04:43:59.588Z,14.71
2022-09-01T04:46:44.321Z,14.78
2022-09-01T04:49:29.179Z,14.83
2022-09-01T04:52:14.476Z,14.88
2022-09-01T04:54:59.164Z,14.91
2022-09-01T04:57:44.106Z,14.91
2022-09-01T05:00:28.958Z,14.88
2022-09-01T05:03:13.793Z,14.92
2022-09-01T05:05:58.435Z,14.96
2022-09-01T05:08:43.462Z,14.99
2022-09-01T05:11:31.167Z,14.95
2022-09-01T05:14:15.958Z,14.95
2022-09-01T05:17:00.871Z,14.97
2022-09-01T05:19:45.826Z,14.98
2022-09-01T05:22:30.653Z,14.99
2022-09-01T05:25:15.516Z,15.00
2022-09-01T05:28:00.804Z,15.05
2022-09-01T05:30:45.467Z,15.06
2022-09-01T05:33:30.155Z,15.10
2022-09-01T05:36:14.754Z,15.09
2022-09-01T05:38:59.621Z,15.10
2022-09-01T05:41:44.408Z,15.11
2022-09-01T05:44:29.247Z,15.20
2022-09-01T05:47:14.776Z,15.29
2022-09-01T05:50:06.031Z,15.35
2022-09-01T05:52:50.977Z,15.45
2022-09-01T05:55:35.823Z,15.58
2022-09-01T05:58:20.561Z,15.72
2022-09-01T06:01:05.892Z,15.87
2022-09-01T06:03:50.599Z,16.02
2022-09-01T06:06:48.969Z,16.21
2022-09-01T06:09:40.645Z,16.43
2022-09-01T06:12:25.528Z,16.77
2022-09-01T06:15:10.269Z,17.83
2022-09-01T06:17:54.854Z,18.64
2022-09-01T06:20:39.570Z,19.15
2022-09-01T06:23:24.425Z,19.19
2022-09-01T06:26:09.229Z,19.22
2022-09-01T06:28:54.211Z,19.33
2022-09-01T06:31:39.056Z,19.72
2022-09-01T06:34:23.879Z,20.44
2022-09-01T06:37:08.676Z,21.19
2022-09-01T06:39:53.381Z,21.82
2022-09-01T06:42:38.174Z,22.29
2022-09-01T06:45:22.857Z,22.34
2022-09-01T06:48:07.647Z,22.55
2022-09-01T06:53:57.495Z,22.57
2022-09-01T06:56:44.987Z,22.97
2022-09-01T06:59:36.435Z,23.29
2022-09-01T07:08:31.270Z,23.94
2022-09-01T07:11:19.790Z,24.06
2022-09-01T07:14:21.329Z,24.62
2022-09-01T07:20:27.128Z,24.83
2022-09-01T07:23:12.209Z,24.96
2022-09-01T07:26:04.492Z,25.13
2022-09-01T07:28:49.512Z,25.07
2022-09-01T07:31:50.161Z,24.63
2022-09-01T07:34:38.830Z,23.73
2022-09-01T07:42:59.167Z,23.70
2022-09-01T07:43:33.799Z,21.44
2022-09-01T07:49:50.114Z,20.93
2022-09-01T07:52:28.765Z,20.59
2022-09-01T07:55:14.411Z,20.35
2022-09-01T07:57:58.997Z,20.33
2022-09-01T08:00:44.763Z,20.38
2022-09-01T08:03:29.632Z,20.23
2022-09-01T08:06:14.334Z,20.09
2022-09-01T08:08:59.211Z,19.94
2022-09-01T08:12:01.722Z,19.87
2022-09-01T08:14:46.898Z,19.81
2022-09-01T08:17:34.611Z,19.63
2022-09-01T08:20:35.696Z,19.62
2022-09-01T08:23:20.552Z,19.84
2022-09-01T08:26:05.241Z,19.95
2022-09-01T08:28:54.925Z,19.79
2022-09-01T08:31:40.334Z,19.81
2022-09-01T08:34:25.138Z,19.78
2022-09-01T08:37:09.927Z,19.78
2022-09-01T08:39:54.749Z,19.95
2022-09-01T08:42:39.465Z,20.19
2022-09-01T08:45:24.184Z,20.46
2022-09-01T08:48:57.217Z,20.65
2022-09-01T08:51:17.184Z,20.60
2022-09-01T08:54:05.073Z,20.71
2022-09-01T08:56:49.918Z,20.89
2022-09-01T08:59:34.576Z,20.81
2022-09-01T09:02:19.407Z,20.55
2022-09-01T09:05:15.402Z,20.34
2022-09-01T09:08:08.133Z,20.23
2022-09-01T09:10:53.213Z,20.08
2022-09-01T09:13:37.990Z,20.11
2022-09-01T09:16:22.858Z,20.07
2022-09-01T09:19:07.961Z,20.17
2022-09-01T09:21:52.686Z,20.33
2022-09-01T09:24:39.401Z,20.47
2022-09-01T09:27:25.288Z,20.50
2022-09-01T09:30:11.886Z,20.62
2022-09-01T09:36:01.549Z,20.55
2022-09-01T09:38:46.487Z,20.39
2022-09-01T09:41:31.263Z,20.55
2022-09-01T09:44:16.061Z,20.31
2022-09-01T09:47:00.774Z,20.12
2022-09-01T09:49:48.880Z,20.52
2022-09-01T09:52:34.205Z,20.71
2022-09-01T09:55:18.789Z,20.80
2022-09-01T09:58:03.421Z,20.92
2022-09-01T10:00:48.162Z,20.91
2022-09-01T10:03:32.866Z,20.91
2022-09-01T10:06:17.482Z,20.98
2022-09-01T10:09:02.745Z,20.99
2022-09-01T10:11:47.849Z,21.19
2022-09-01T10:14:49.842Z,21.04
2022-09-01T10:17:37.515Z,21.16
2022-09-01T10:20:25.484Z,21.41
2022-09-01T10:23:14.948Z,21.57
2022-09-01T10:26:00.391Z,21.49
2022-09-01T10:28:49.893Z,21.55
2022-09-01T10:31:35.535Z,21.62
2022-09-01T10:34:20.248Z,21.55
2022-09-01T10:37:11.238Z,21.48
2022-09-01T10:39:56.482Z,21.75
2022-09-01T10:42:45.260Z,21.84
2022-09-01T10:45:30.351Z,21.97
2022-09-01T10:48:17.890Z,21.75
2022-09-01T10:51:02.831Z,21.74
2022-09-01T10:53:47.606Z,21.78
2022-09-01T10:56:36.637Z,21.98
2022-09-01T10:59:41.750Z,22.18
2022-09-01T11:02:28.713Z,22.25
2022-09-01T11:05:19.510Z,22.27
2022-09-01T11:08:14.916Z,22.42
2022-09-01T11:11:00.100Z,22.35
2022-09-01T11:13:49.174Z,22.41
2022-09-01T11:16:50.161Z,22.35
2022-09-01T11:19:35.599Z,22.40
2022-09-01T11:22:20.279Z,22.13
2022-09-01T11:25:11.785Z,22.15
2022-09-01T11:27:57.627Z,21.81
2022-09-01T11:30:42.925Z,21.83
2022-09-01T11:33:28.148Z,22.00
2022-09-01T11:36:13.143Z,22.13
2022-09-01T11:38:57.947Z,22.28
2022-09-01T11:41:43.006Z,22.14
2022-09-01T11:44:27.820Z,22.02
2022-09-01T11:47:14.595Z,22.24
2022-09-01T11:49:59.820Z,22.43
2022-09-01T11:52:44.549Z,22.25
2022-09-01T11:55:29.295Z,22.52
2022-09-01T11:58:17.789Z,22.66
2022-09-01T12:01:03.010Z,22.42
2022-09-01T12:03:47.800Z,22.55
2022-09-01T12:06:33.044Z,22.57
2022-09-01T12:09:17.821Z,22.64
2022-09-01T12:12:02.605Z,22.61
2022-09-01T12:15:04.886Z,22.73
2022-09-01T12:17:50.575Z,22.62
2022-09-01T12:20:35.386Z,22.80
2022-09-01T12:23:20.570Z,22.69
2022-09-01T12:26:05.664Z,22.68
2022-09-01T12:28:50.339Z,22.87
2022-09-01T12:31:35.137Z,22.99
2022-09-01T12:34:19.874Z,22.94
2022-09-01T12:37:04.601Z,22.95
2022-09-01T12:39:49.394Z,22.83
2022-09-01T12:42:41.254Z,22.74
2022-09-01T12:45:27.892Z,22.80
2022-09-01T12:48:12.617Z,22.88
2022-09-01T12:50:57.425Z,22.96
2022-09-01T12:53:42.583Z,23.03
2022-09-01T12:56:27.593Z,23.21
2022-09-01T12:59:15.686Z,23.25
2022-09-01T13:02:02.923Z,23.34
2022-09-01T13:04:48.125Z,23.34
2022-09-01T13:07:32.860Z,23.34
2022-09-01T13:10:17.713Z,23.41
2022-09-01T13:13:02.425Z,23.44
2022-09-01T13:15:47.330Z,23.55
2022-09-01T13:18:32.154Z,23.60
2022-09-01T13:21:16.780Z,23.51
2022-09-01T13:24:01.637Z,23.48
2022-09-01T13:27:20.304Z,23.23
2022-09-01T13:29:51.750Z,23.23
2022-09-01T13:32:36.637Z,23.12
2022-09-01T13:35:22.277Z,23.12
2022-09-01T13:38:07.136Z,23.18
2022-09-01T13:40:51.944Z,23.18
2022-09-01T13:43:37.146Z,23.09
2022-09-01T13:46:25.526Z,23.12
2022-09-01T13:52:15.076Z,23.18
2022-09-01T13:54:59.797Z,23.25
2022-09-01T13:57:44.461Z,23.30
2022-09-01T14:00:29.112Z,23.31
2022-09-01T14:03:15.001Z,23.41
2022-09-01T14:05:59.791Z,23.44
2022-09-01T14:08:44.568Z,23.54
2022-09-01T14:11:29.307Z,23.69
2022-09-01T14:14:14.254Z,23.74
2022-09-01T14:16:59.013Z,23.62
2022-09-01T14:19:43.956Z,23.86
2022-09-01T14:22:28.532Z,24.07
2022-09-01T14:25:13.264Z,24.03
2022-09-01T14:27:58.380Z,23.98
2022-09-01T14:30:43.235Z,23.92
2022-09-01T14:33:27.931Z,23.91
2022-09-01T14:36:15.071Z,24.05
2022-09-01T14:38:59.987Z,23.82
2022-09-01T14:41:44.809Z,24.01
2022-09-01T14:44:29.655Z,24.03
2022-09-01T14:47:18.211Z,23.80
2022-09-01T14:50:04.614Z,23.82
2022-09-01T14:52:49.383Z,23.90
2022-09-01T14:55:34.068Z,23.90
2022-09-01T14:58:19.001Z,23.93
2022-09-01T15:01:23.495Z,23.79
2022-09-01T15:04:08.522Z,23.65
2022-09-01T15:06:53.301Z,23.74
2022-09-01T15:09:38.022Z,23.65
2022-09-01T15:12:22.738Z,23.63
2022-09-01T15:15:07.497Z,23.56
2022-09-01T15:17:52.244Z,23.48
2022-09-01T15:20:36.870Z,23.50
2022-09-01T15:23:21.704Z,23.15
2022-09-01T15:26:06.296Z,23.04
2022-09-01T15:28:50.976Z,22.77
2022-09-01T15:31:35.569Z,22.84
2022-09-01T15:34:20.405Z,22.73
2022-09-01T15:37:05.135Z,22.67
2022-09-01T15:39:49.909Z,22.73
2022-09-01T15:42:35.038Z,22.62
2022-09-01T15:45:19.813Z,22.66
2022-09-01T15:48:04.622Z,22.69
2022-09-01T15:50:49.303Z,22.67
2022-09-01T15:53:34.034Z,22.76
2022-09-01T15:56:18.657Z,22.68
2022-09-01T15:59:03.367Z,22.66
2022-09-01T16:01:48.144Z,22.51
2022-09-01T16:04:32.805Z,22.58
2022-09-01T16:07:17.680Z,22.58
2022-09-01T16:10:02.336Z,22.58
2022-09-01T16:12:47.276Z,22.60
2022-09-01T16:15:32.072Z,22.64
2022-09-01T16:18:17.010Z,22.64
2022-09-01T16:21:02.072Z,22.57
2022-09-01T16:23:46.888Z,22.54
2022-09-01T16:26:31.618Z,22.46
2022-09-01T16:29:16.368Z,22.37
2022-09-01T16:32:01.130Z,22.37
2022-09-01T16:34:45.926Z,22.28
2022-09-01T16:37:30.766Z,22.26
2022-09-01T16:40:15.558Z,22.13
2022-09-01T16:43:00.274Z,22.12
2022-09-01T16:45:45.055Z,22.05
2022-09-01T16:48:30.309Z,22.02
2022-09-01T16:51:14.987Z,22.05
2022-09-01T16:53:59.781Z,22.00
2022-09-01T16:56:44.616Z,22.09
2022-09-01T16:59:29.393Z,22.08
2022-09-01T17:02:14.379Z,22.14
2022-09-01T17:04:59.579Z,22.20
2022-09-01T17:07:44.422Z,22.23
2022-09-01T17:10:29.043Z,22.24
2022-09-01T17:13:14.390Z,22.24
2022-09-01T17:15:59.104Z,22.26
2022-09-01T17:18:43.795Z,22.25
2022-09-01T17:21:28.593Z,22.23
2022-09-01T17:24:13.446Z,22.19
2022-09-01T17:26:58.239Z,22.15
2022-09-01T17:29:43.014Z,22.12
2022-09-01T17:32:28.242Z,22.13
2022-09-01T17:35:15.991Z,22.00
2022-09-01T17:38:00.790Z,21.99
2022-09-01T17:40:45.671Z,21.82
2022-09-01T17:43:30.800Z,21.74
2022-09-01T17:46:15.662Z,21.66
2022-09-01T17:49:00.764Z,21.62
2022-09-01T17:51:45.581Z,21.58
2022-09-01T17:54:30.366Z,21.51
2022-09-01T17:57:15.077Z,21.48
2022-09-01T17:59:59.699Z,21.46
2022-09-01T18:02:44.574Z,21.47
2022-09-01T18:05:29.396Z,21.40
2022-09-01T18:08:14.573Z,21.38
2022-09-01T18:10:59.427Z,21.29
2022-09-01T18:13:59.714Z,21.26
2022-09-01T18:16:44.895Z,21.20
2022-09-01T18:19:29.510Z,21.12
2022-09-01T18:22:14.394Z,21.09
2022-09-01T18:24:59.047Z,21.05
2022-09-01T18:27:44.433Z,21.02
2022-09-01T18:30:51.680Z,20.95
2022-09-01T18:33:34.003Z,20.86
2022-09-01T18:36:18.754Z,20.81
2022-09-01T18:39:03.510Z,20.78
2022-09-01T18:41:48.137Z,20.68
2022-09-01T18:44:32.835Z,20.65
2022-09-01T18:47:17.553Z,20.59
2022-09-01T18:50:02.287Z,20.51
2022-09-01T18:52:47.072Z,20.41
2022-09-01T18:55:32.003Z,20.34
2022-09-01T18:58:16.721Z,20.30
2022-09-01T19:01:01.473Z,20.20
2022-09-01T19:03:46.185Z,20.15
2022-09-01T19:06:31.077Z,20.09
2022-09-01T19:09:15.906Z,20.07
2022-09-01T19:12:00.779Z,20.00
2022-09-01T19:14:45.528Z,19.96
2022-09-01T19:17:30.207Z,19.88
2022-09-01T19:20:15.078Z,19.84
2022-09-01T19:22:59.786Z,19.77
2022-09-01T19:25:44.637Z,19.78
2022-09-01T19:28:29.318Z,19.71
2022-09-01T19:31:14.317Z,19.63
2022-09-01T19:33:58.861Z,19.54
2022-09-01T19:36:43.681Z,19.49
2022-09-01T19:39:28.477Z,19.51
2022-09-01T19:42:13.438Z,19.53
2022-09-01T19:44:58.138Z,19.48
2022-09-01T19:47:43.878Z,19.41
2022-09-01T19:50:28.724Z,19.30
2022-09-01T19:53:13.522Z,19.29
2022-09-01T19:55:58.286Z,19.28
2022-09-01T19:58:43.022Z,19.24
2022-09-01T20:01:27.995Z,19.21
2022-09-01T20:04:12.636Z,19.17
2022-09-01T20:06:57.449Z,19.11
2022-09-01T20:09:42.158Z,19.07
2022-09-01T20:12:26.953Z,18.97
2022-09-01T20:15:11.868Z,18.95
2022-09-01T20:17:56.952Z,18.93
2022-09-01T20:20:41.757Z,18.84
2022-09-01T20:23:26.512Z,18.84
2022-09-01T20:26:11.323Z,18.78
2022-09-01T20:28:56.740Z,18.71
2022-09-01T20:31:42.050Z,18.65
2022-09-01T20:34:26.823Z,18.64
2022-09-01T20:37:11.647Z,18.69
2022-09-01T20:39:56.267Z,18.62
2022-09-01T20:42:41.027Z,18.57
2022-09-01T20:45:25.953Z,18.50
2022-09-01T20:48:10.605Z,18.48
2022-09-01T20:50:55.462Z,18.40
2022-09-01T20:53:40.054Z,18.33
2022-09-01T20:56:24.868Z,18.23
2022-09-01T20:59:09.647Z,18.18
2022-09-01T21:01:54.410Z,18.09
2022-09-01T21:04:39.002Z,18.05
2022-09-01T21:07:26.087Z,18.06
2022-09-01T21:10:14.853Z,18.14
2022-09-01T21:13:00.135Z,18.12
2022-09-01T21:15:45.006Z,18.10
2022-09-01T21:18:29.835Z,18.02
2022-09-01T21:21:14.608Z,18.02
2022-09-01T21:23:59.418Z,17.97
2022-09-01T21:26:44.159Z,17.93
2022-09-01T21:29:28.958Z,17.86
2022-09-01T21:32:13.612Z,17.91
2022-09-01T21:34:58.355Z,17.92
2022-09-01T21:37:43.262Z,17.92
2022-09-01T21:40:28.078Z,17.95
2022-09-01T21:43:12.848Z,17.99
2022-09-01T21:45:57.691Z,18.01
2022-09-01T21:48:42.969Z,17.99
2022-09-01T21:51:27.633Z,18.02
2022-09-01T21:54:12.429Z,17.93
2022-09-01T21:56:57.073Z,17.96
2022-09-01T21:59:41.835Z,17.87
2022-09-01T22:02:28.464Z,17.81
2022-09-01T22:05:13.891Z,17.75
2022-09-01T22:07:58.709Z,17.64
2022-09-01T22:10:43.408Z,17.68
2022-09-01T22:13:28.266Z,17.63
2022-09-01T22:16:13.224Z,17.56
2022-09-01T22:19:01.460Z,17.51
2022-09-01T22:21:46.391Z,17.49
2022-09-01T22:24:30.941Z,17.53
2022-09-01T22:27:15.804Z,17.50
2022-09-01T22:30:00.518Z,17.43
2022-09-01T22:32:45.381Z,17.34
2022-09-01T22:35:30.582Z,17.26
2022-09-01T22:38:15.439Z,17.19
2022-09-01T22:41:00.037Z,17.17
2022-09-01T22:43:44.905Z,17.14
2022-09-01T22:46:29.591Z,17.11
2022-09-01T22:49:14.340Z,17.07
2022-09-01T22:51:59.258Z,17.10
2022-09-01T22:54:45.062Z,17.11
2022-09-01T22:57:29.877Z,17.08
2022-09-01T23:00:14.565Z,17.11
2022-09-01T23:02:59.335Z,17.12
2022-09-01T23:05:44.114Z,17.17
2022-09-01T23:08:28.938Z,17.18
2022-09-01T23:11:13.657Z,17.21
2022-09-01T23:13:58.492Z,17.20
2022-09-01T23:16:43.223Z,17.19
2022-09-01T23:19:28.442Z,17.18
2022-09-01T23:22:13.258Z,17.16
2022-09-01T23:24:57.921Z,17.15
2022-09-01T23:27:42.694Z,17.12
2022-09-01T23:30:27.489Z,17.14
2022-09-01T23:33:12.205Z,17.10
2022-09-01T23:35:56.947Z,17.07
2022-09-01T23:38:41.713Z,17.06
2022-09-01T23:41:26.547Z,16.96
2022-09-01T23:44:11.380Z,16.87
2022-09-01T23:46:56.157Z,16.77
2022-09-01T23:49:40.964Z,16.69
2022-09-01T23:52:25.874Z,16.68
2022-09-01T23:55:10.601Z,16.61
2022-09-01T23:57:55.378Z,16.60
